Time;durP1;ratioP1;P1;durP2;ratioP2;P2;SDS_P1;SDS_P2;PMS_P1;PMS_P2;Temp;Humidity;BMP_temperature;BMP_pressure;BME280_temperature;BME280_humidity;BME280_pressure;Samples;Min_cycle;Max_cycle;Signal;HPM_P1;HPM_P2
2023/03/04 00:01:16;;;;;;;15.05;2.13;;;5.70;99.90;;;;;;5118364;27;20123;-51
2023/03/04 00:03:42;;;;;;;13.90;2.53;;;5.70;99.90;;;;;;5129505;27;20076;-47
2023/03/04 00:06:07;;;;;;;17.25;3.05;;;5.70;99.90;;;;;;5131106;27;20440;-51
2023/03/04 00:08:33;;;;;;;13.32;2.00;;;5.70;99.90;;;;;;5096144;27;20087;-49
2023/03/04 00:10:59;;;;;;;17.02;1.90;;;5.70;99.90;;;;;;5131295;27;20497;-50
2023/03/04 00:13:25;;;;;;;15.10;2.25;;;5.70;99.90;;;;;;5129765;27;20039;-50
2023/03/04 00:15:52;;;;;;;12.85;2.25;;;5.70;99.90;;;;;;5129777;27;20042;-50
2023/03/04 00:18:19;;;;;;;13.35;2.05;;;5.70;99.90;;;;;;5130514;27;20382;-51
2023/03/04 00:20:45;;;;;;;15.40;2.25;;;5.70;99.90;;;;;;5114296;27;20031;-47
2023/03/04 00:23:11;;;;;;;11.80;1.60;;;5.90;99.90;;;;;;5131109;27;20039;-49
2023/03/04 00:25:37;;;;;;;13.13;1.90;;;5.70;99.90;;;;;;5129701;27;20063;-48
2023/03/04 00:28:03;;;;;;;15.73;2.05;;;5.70;99.90;;;;;;5130511;27;20386;-52
2023/03/04 00:30:28;;;;;;;19.33;2.00;;;5.70;99.90;;;;;;5074453;28;20070;-50
2023/03/04 00:32:54;;;;;;;21.48;2.47;;;5.70;99.90;;;;;;5114774;27;20544;-48
2023/03/04 00:35:20;;;;;;;12.05;2.15;;;5.70;99.90;;;;;;5129676;27;20042;-47
2023/03/04 00:37:45;;;;;;;11.02;1.98;;;5.60;99.90;;;;;;5131147;27;20482;-50
2023/03/04 00:40:11;;;;;;;14.77;2.20;;;6.00;99.90;;;;;;5090706;28;20491;-50
2023/03/04 00:42:37;;;;;;;15.05;2.25;;;5.70;99.90;;;;;;5127938;27;20042;-49
2023/03/04 00:45:04;;;;;;;10.80;1.85;;;5.70;99.90;;;;;;5128680;27;20279;-46
2023/03/04 00:47:30;;;;;;;15.02;2.17;;;5.70;99.90;;;;;;5130937;27;20121;-48
2023/03/04 00:49:55;;;;;;;18.55;2.15;;;5.70;99.90;;;;;;5089885;28;20112;-50
2023/03/04 00:52:21;;;;;;;17.08;2.47;;;5.70;99.90;;;;;;5115902;27;20114;-47
2023/03/04 00:54:47;;;;;;;13.85;2.47;;;5.60;99.90;;;;;;5129162;27;20686;-50
2023/03/04 00:57:13;;;;;;;12.48;1.95;;;5.70;99.90;;;;;;5115320;27;20066;-48
2023/03/04 00:59:39;;;;;;;14.55;2.13;;;5.70;99.90;;;;;;5129082;27;20043;-49
2023/03/04 01:02:05;;;;;;;17.77;3.05;;;5.60;99.90;;;;;;5130414;27;20475;-47
2023/03/04 01:04:31;;;;;;;16.80;2.67;;;5.70;99.90;;;;;;5129602;27;20031;-50
2023/03/04 01:06:57;;;;;;;16.10;2.28;;;5.70;99.90;;;;;;5130197;27;20386;-49
2023/03/04 01:09:23;;;;;;;11.32;2.53;;;5.60;99.90;;;;;;5129586;28;20074;-49
2023/03/04 01:11:48;;;;;;;15.55;2.17;;;5.60;99.90;;;;;;5130690;28;20039;-47
2023/03/04 01:14:14;;;;;;;14.23;2.35;;;5.60;99.90;;;;;;5128269;28;20448;-48
2023/03/04 01:16:40;;;;;;;14.88;2.88;;;5.60;99.90;;;;;;5117440;28;20050;-49
2023/03/04 01:19:05;;;;;;;10.38;2.30;;;5.80;99.90;;;;;;5089857;28;20475;-48
2023/03/04 01:21:31;;;;;;;14.00;2.38;;;5.60;99.90;;;;;;5113628;28;20043;-51
2023/03/04 01:23:57;;;;;;;13.32;2.15;;;5.70;99.90;;;;;;5129188;28;20039;-47
2023/03/04 01:26:22;;;;;;;11.32;1.95;;;5.60;99.90;;;;;;5096854;28;20093;-49
2023/03/04 01:28:48;;;;;;;13.38;2.28;;;5.80;99.90;;;;;;5090058;28;20119;-48
2023/03/04 01:31:14;;;;;;;17.27;2.63;;;5.60;99.90;;;;;;5113709;27;20122;-49
2023/03/04 01:33:39;;;;;;;12.27;1.50;;;5.60;99.90;;;;;;5132813;27;20038;-50
2023/03/04 01:36:05;;;;;;;11.10;1.85;;;5.60;99.90;;;;;;5133329;27;20070;-52
2023/03/04 01:38:31;;;;;;;18.52;2.25;;;5.60;99.90;;;;;;5132649;27;20449;-50
2023/03/04 01:40:57;;;;;;;11.70;2.53;;;5.70;99.90;;;;;;5100908;28;20055;-47
2023/03/04 01:43:26;;;;;;;18.77;2.10;;;5.60;99.90;;;;;;5121723;27;20445;-51
2023/03/04 01:45:53;;;;;;;17.15;2.20;;;5.60;99.90;;;;;;5099987;28;20036;-51
2023/03/04 01:48:24;;;;;;;14.73;1.90;;;5.50;99.90;;;;;;5132000;27;20058;-50
2023/03/04 01:50:50;;;;;;;11.70;2.03;;;5.50;99.90;;;;;;5120927;27;20046;-48
2023/03/04 01:53:25;;;;;;;11.93;2.35;;;5.50;99.90;;;;;;5093656;28;20475;-51
2023/03/04 01:55:55;;;;;;;16.27;1.80;;;5.60;99.90;;;;;;5121348;27;20051;-50
2023/03/04 01:58:25;;;;;;;11.25;1.88;;;5.60;99.90;;;;;;5132113;27;20035;-50
2023/03/04 02:00:50;;;;;;;13.50;2.17;;;5.50;99.90;;;;;;5118522;27;20426;-48
2023/03/04 02:03:21;;;;;;;17.10;1.80;;;5.60;99.90;;;;;;5110196;27;20035;-50
2023/03/04 02:05:51;;;;;;;11.13;1.58;;;5.60;99.90;;;;;;5132023;27;20086;-49
2023/03/04 02:08:19;;;;;;;13.43;1.88;;;5.60;99.90;;;;;;5102076;28;20360;-49
2023/03/04 02:10:46;;;;;;;12.75;1.77;;;5.50;99.90;;;;;;5091890;28;20045;-51
2023/03/04 02:13:13;;;;;;;14.85;1.95;;;5.90;99.90;;;;;;5089859;28;20059;-47
2023/03/04 02:15:39;;;;;;;12.90;1.80;;;5.70;99.90;;;;;;5092207;28;20119;-48
2023/03/04 02:18:16;;;;;;;13.75;1.73;;;5.50;99.90;;;;;;5091295;28;20119;-50
2023/03/04 02:21:17;;;;;;;10.25;1.80;;;5.50;99.90;;;;;;5090661;28;20472;-48
2023/03/04 02:23:58;;;;;;;16.35;1.63;;;5.50;99.90;;;;;;5091104;28;20050;-49
2023/03/04 02:26:26;;;;;;;13.00;1.80;;;5.50;99.90;;;;;;5091736;28;20074;-47
2023/03/04 02:28:53;;;;;;;11.73;1.73;;;5.50;99.90;;;;;;5090913;28;20107;-50
2023/03/04 02:31:47;;;;;;;17.00;1.88;;;5.90;99.90;;;;;;5092441;28;20128;-51
2023/03/04 02:34:27;;;;;;;15.98;1.83;;;5.50;99.90;;;;;;5086409;28;20119;-46
2023/03/04 02:36:54;;;;;;;8.85;1.50;;;5.50;99.90;;;;;;5086412;28;20040;-48
2023/03/04 02:39:19;;;;;;;8.75;1.23;;;5.70;99.90;;;;;;5091981;28;20078;-48
2023/03/04 02:41:46;;;;;;;9.50;1.38;;;5.50;99.90;;;;;;5091325;28;20063;-49
2023/03/04 02:44:36;;;;;;;8.80;1.50;;;5.50;99.90;;;;;;5091897;28;20063;-47
2023/03/04 02:47:04;;;;;;;12.18;1.98;;;5.50;99.90;;;;;;5092442;28;20039;-48
2023/03/04 02:49:31;;;;;;;6.55;1.48;;;5.50;99.90;;;;;;5091968;28;20040;-48
2023/03/04 02:52:07;;;;;;;13.07;1.77;;;5.50;99.90;;;;;;5090912;28;20384;-48
2023/03/04 02:54:33;;;;;;;15.40;1.70;;;5.60;99.90;;;;;;5091834;28;20036;-47
2023/03/04 02:57:02;;;;;;;12.60;1.63;;;5.50;99.90;;;;;;5091356;28;20032;-47
2023/03/04 02:59:27;;;;;;;8.10;1.38;;;5.40;99.90;;;;;;5092609;28;20067;-49
2023/03/04 03:01:53;;;;;;;11.65;2.00;;;5.50;99.90;;;;;;5092236;28;20083;-46
2023/03/04 03:04:21;;;;;;;11.50;1.90;;;5.40;99.90;;;;;;5091349;28;20119;-51
2023/03/04 03:06:46;;;;;;;8.30;1.33;;;5.60;99.90;;;;;;5091028;28;20036;-48
2023/03/04 03:09:12;;;;;;;11.75;1.65;;;5.50;99.90;;;;;;5115537;27;20076;-49
2023/03/04 03:11:38;;;;;;;10.43;2.08;;;5.40;99.90;;;;;;5131858;27;20083;-47
2023/03/04 03:14:04;;;;;;;10.80;1.63;;;5.80;99.90;;;;;;5132831;27;20057;-49
2023/03/04 03:16:29;;;;;;;12.65;2.05;;;5.40;99.90;;;;;;5131525;27;20104;-49
2023/03/04 03:18:55;;;;;;;10.45;1.70;;;5.40;99.90;;;;;;5131384;27;20042;-47
2023/03/04 03:21:21;;;;;;;11.93;1.73;;;5.40;99.90;;;;;;5109089;27;20097;-48
2023/03/04 03:23:47;;;;;;;13.60;1.95;;;5.40;99.90;;;;;;5103235;28;20047;-49
2023/03/04 03:26:13;;;;;;;16.67;1.67;;;5.40;99.90;;;;;;5131104;27;20486;-46
2023/03/04 03:28:39;;;;;;;10.73;1.60;;;5.40;99.90;;;;;;5131503;27;20034;-47
2023/03/04 03:31:05;;;;;;;16.10;1.92;;;5.40;99.90;;;;;;5121763;27;20035;-47
2023/03/04 03:33:31;;;;;;;16.38;1.77;;;5.40;99.90;;;;;;5115495;27;20038;-46
2023/03/04 03:35:57;;;;;;;9.43;1.55;;;5.30;99.90;;;;;;5130910;27;20034;-51
2023/03/04 03:38:22;;;;;;;16.95;2.00;;;5.40;99.90;;;;;;5132574;27;20043;-46
2023/03/04 03:40:48;;;;;;;7.30;1.25;;;5.30;99.90;;;;;;5131474;27;20084;-46
2023/03/04 03:43:14;;;;;;;14.40;2.15;;;5.40;99.90;;;;;;5131667;27;20393;-47
2023/03/04 03:45:39;;;;;;;14.35;1.80;;;5.30;99.90;;;;;;5131624;27;20504;-48
2023/03/04 03:48:05;;;;;;;14.40;2.03;;;5.40;99.90;;;;;;5091107;28;20031;-49
2023/03/04 03:50:32;;;;;;;6.40;1.15;;;5.30;99.90;;;;;;5097232;27;20067;-50
2023/03/04 03:52:58;;;;;;;10.52;1.83;;;5.30;99.90;;;;;;5131348;27;20039;-47
2023/03/04 03:55:23;;;;;;;10.98;1.98;;;5.30;99.90;;;;;;5129095;27;20516;-50
2023/03/04 03:57:49;;;;;;;15.27;1.70;;;5.70;99.90;;;;;;5129917;27;20395;-46
2023/03/04 04:00:15;;;;;;;12.70;2.00;;;5.30;99.90;;;;;;5130836;27;20114;-50
2023/03/04 04:02:41;;;;;;;17.92;2.22;;;5.30;99.90;;;;;;5131133;27;20043;-48
2023/03/04 04:05:08;;;;;;;13.38;1.80;;;5.30;99.90;;;;;;5130639;27;20054;-48
2023/03/04 04:07:35;;;;;;;12.15;1.80;;;5.30;99.90;;;;;;5130216;27;20039;-48
2023/03/04 04:10:01;;;;;;;14.60;1.70;;;5.20;99.90;;;;;;5090396;27;20617;-47
2023/03/04 04:12:27;;;;;;;15.73;1.67;;;5.20;99.90;;;;;;5130694;27;20035;-47
2023/03/04 04:14:52;;;;;;;12.60;1.67;;;5.20;99.90;;;;;;5106398;27;20069;-47
2023/03/04 04:17:18;;;;;;;8.88;1.60;;;5.20;99.90;;;;;;5089609;28;20043;-47
2023/03/04 04:19:43;;;;;;;13.80;1.70;;;5.20;99.90;;;;;;5094500;28;20048;-48
2023/03/04 04:22:15;;;;;;;15.48;2.60;;;5.20;99.90;;;;;;5127456;27;20500;-49
2023/03/04 04:24:41;;;;;;;12.23;1.83;;;5.20;99.90;;;;;;5130638;27;20102;-47
2023/03/04 04:27:07;;;;;;;12.48;1.52;;;5.20;99.90;;;;;;5129540;27;20050;-51
2023/03/04 04:29:33;;;;;;;13.65;1.92;;;5.20;99.90;;;;;;5080371;28;20032;-48
2023/03/04 04:31:59;;;;;;;14.30;1.98;;;5.20;99.90;;;;;;5127659;27;20031;-50
2023/03/04 04:34:25;;;;;;;10.27;1.75;;;5.20;99.90;;;;;;5098875;28;20046;-50
2023/03/04 04:36:51;;;;;;;12.63;2.28;;;5.20;99.90;;;;;;5091165;28;20039;-48
2023/03/04 04:39:16;;;;;;;8.77;1.63;;;5.10;99.90;;;;;;5099641;28;20036;-49
2023/03/04 04:41:43;;;;;;;13.27;1.88;;;5.20;99.90;;;;;;5125659;27;20484;-51
2023/03/04 04:44:10;;;;;;;9.60;1.90;;;5.10;99.90;;;;;;5130871;27;20041;-48
2023/03/04 04:46:36;;;;;;;14.25;1.75;;;5.20;99.90;;;;;;5128655;27;20035;-47
2023/03/04 04:49:03;;;;;;;10.85;1.80;;;5.10;99.90;;;;;;5130261;27;20038;-51
2023/03/04 04:51:29;;;;;;;10.93;1.58;;;5.20;99.90;;;;;;5129387;27;20070;-50
2023/03/04 04:53:55;;;;;;;18.33;2.42;;;5.20;99.90;;;;;;5129991;27;20066;-48
2023/03/04 04:56:25;;;;;;;9.15;1.67;;;5.10;99.90;;;;;;5129887;27;20414;-48
2023/03/04 04:58:52;;;;;;;11.05;1.75;;;5.10;99.90;;;;;;5131060;27;20103;-49
2023/03/04 05:01:18;;;;;;;10.55;1.60;;;5.20;99.90;;;;;;5131841;27;20053;-48
2023/03/04 05:03:44;;;;;;;13.32;1.95;;;5.10;99.90;;;;;;5131832;27;20039;-49
2023/03/04 05:06:11;;;;;;;9.27;1.70;;;5.60;99.90;;;;;;5128717;27;20050;-49
2023/03/04 05:08:37;;;;;;;12.40;1.95;;;5.50;99.90;;;;;;5129359;27;20402;-48
2023/03/04 05:11:05;;;;;;;13.55;1.83;;;5.10;99.90;;;;;;5130087;28;20043;-48
2023/03/04 05:13:31;;;;;;;15.93;2.00;;;5.10;99.90;;;;;;5113594;28;20044;-49
2023/03/04 05:15:57;;;;;;;10.50;1.55;;;5.20;99.90;;;;;;5127347;28;20092;-49
2023/03/04 05:18:25;;;;;;;10.40;1.40;;;5.20;99.90;;;;;;5129341;28;20479;-49
2023/03/04 05:20:56;;;;;;;12.40;2.22;;;5.10;99.90;;;;;;5128752;28;20478;-48
2023/03/04 05:23:23;;;;;;;9.70;1.25;;;5.20;99.90;;;;;;5124776;28;20054;-49
2023/03/04 05:25:48;;;;;;;12.07;1.60;;;5.20;99.90;;;;;;5130245;28;20504;-49
2023/03/04 05:28:15;;;;;;;9.18;1.70;;;5.30;99.90;;;;;;5131221;28;20063;-47
2023/03/04 05:30:42;;;;;;;13.10;1.63;;;5.10;99.90;;;;;;5129687;28;20035;-47
2023/03/04 05:33:09;;;;;;;10.30;1.65;;;5.10;99.90;;;;;;5130552;28;20038;-47
2023/03/04 05:35:36;;;;;;;10.70;1.60;;;5.90;99.90;;;;;;5129147;28;20077;-50
2023/03/04 05:38:04;;;;;;;8.77;1.33;;;5.20;99.90;;;;;;5130068;28;20386;-48
2023/03/04 05:40:30;;;;;;;9.18;1.70;;;5.10;99.90;;;;;;5128541;28;20571;-49
2023/03/04 05:42:55;;;;;;;10.70;1.50;;;5.10;99.90;;;;;;5129381;28;20070;-51
2023/03/04 05:45:22;;;;;;;9.32;1.50;;;5.10;99.90;;;;;;5089556;28;20096;-47
2023/03/04 05:47:48;;;;;;;7.80;1.25;;;5.20;99.90;;;;;;5127853;28;20040;-48
2023/03/04 05:50:14;;;;;;;15.75;1.77;;;5.10;99.90;;;;;;5129651;28;20054;-50
2023/03/04 05:52:39;;;;;;;8.65;1.50;;;5.10;99.90;;;;;;5120413;28;20038;-50
2023/03/04 05:55:06;;;;;;;10.00;1.88;;;5.10;99.90;;;;;;5128128;28;20039;-50
2023/03/04 05:57:31;;;;;;;9.95;1.75;;;5.00;99.90;;;;;;5130270;28;20078;-47
2023/03/04 05:59:57;;;;;;;14.63;1.48;;;5.00;99.90;;;;;;5090631;28;20083;-48
2023/03/04 06:02:23;;;;;;;9.35;1.73;;;5.00;99.90;;;;;;5111706;28;20039;-48
2023/03/04 06:04:48;;;;;;;7.60;1.40;;;5.10;99.90;;;;;;5129095;28;20031;-47
2023/03/04 06:07:14;;;;;;;14.50;1.55;;;5.10;99.90;;;;;;5098212;28;20035;-47
2023/03/04 06:09:40;;;;;;;3.75;1.30;;;5.40;99.90;;;;;;5125231;28;20090;-47
2023/03/04 06:12:06;;;;;;;10.70;1.65;;;5.20;99.90;;;;;;5130666;28;20066;-46
2023/03/04 06:14:32;;;;;;;5.78;1.70;;;5.10;99.90;;;;;;5112164;28;20035;-47
2023/03/04 06:16:57;;;;;;;12.40;1.42;;;5.10;99.90;;;;;;5129546;27;20046;-46
2023/03/04 06:19:23;;;;;;;6.15;1.60;;;5.00;99.90;;;;;;5132041;27;20130;-49
2023/03/04 06:21:49;;;;;;;6.47;1.60;;;5.10;99.90;;;;;;5132458;27;20045;-50
2023/03/04 06:24:14;;;;;;;6.65;1.23;;;5.10;99.90;;;;;;5100014;27;20555;-49
2023/03/04 06:26:40;;;;;;;6.25;1.23;;;5.10;99.90;;;;;;5133105;27;20035;-47
2023/03/04 06:29:06;;;;;;;7.68;1.42;;;5.30;99.90;;;;;;5112560;27;20035;-50
2023/03/04 06:31:31;;;;;;;8.40;1.33;;;5.40;99.90;;;;;;5133486;27;20035;-47
2023/03/04 06:33:57;;;;;;;10.38;1.70;;;5.00;99.90;;;;;;5132182;27;20050;-48
2023/03/04 06:36:23;;;;;;;5.60;1.50;;;5.00;99.90;;;;;;5132675;27;20039;-49
2023/03/04 06:38:49;;;;;;;8.50;1.75;;;5.00;99.90;;;;;;5132785;27;20043;-49
2023/03/04 06:41:16;;;;;;;6.32;1.63;;;5.00;99.90;;;;;;5132227;27;20038;-47
2023/03/04 06:43:41;;;;;;;6.50;1.27;;;5.00;99.90;;;;;;5131899;27;20046;-49
2023/03/04 06:46:07;;;;;;;6.25;1.40;;;5.00;99.90;;;;;;5133031;27;20378;-48
2023/03/04 06:48:33;;;;;;;5.68;1.17;;;5.00;99.90;;;;;;5131286;27;20315;-50
2023/03/04 06:51:05;;;;;;;5.90;1.48;;;5.10;99.90;;;;;;5116394;27;20063;-47
2023/03/04 06:53:31;;;;;;;8.18;1.60;;;5.40;99.90;;;;;;5131198;27;20035;-48
2023/03/04 06:55:57;;;;;;;12.05;1.83;;;5.00;99.90;;;;;;5112840;27;20428;-46
2023/03/04 06:58:22;;;;;;;8.75;1.65;;;5.00;99.90;;;;;;5133627;27;20043;-48
2023/03/04 07:00:48;;;;;;;10.95;1.90;;;5.10;99.90;;;;;;5133720;27;20062;-47
2023/03/04 07:03:13;;;;;;;9.68;1.67;;;5.00;99.90;;;;;;5131808;27;20039;-48
2023/03/04 07:05:39;;;;;;;5.78;1.40;;;3.80;99.90;;;;;;5131717;27;20043;-51
2023/03/04 07:08:06;;;;;;;8.82;1.65;;;5.10;99.90;;;;;;5130829;27;20042;-48
2023/03/04 07:10:32;;;;;;;5.57;1.30;;;5.10;99.90;;;;;;5103198;28;20512;-50
2023/03/04 07:12:57;;;;;;;9.45;1.83;;;5.10;99.90;;;;;;5121660;27;20122;-50
2023/03/04 07:15:23;;;;;;;8.68;1.23;;;5.20;99.90;;;;;;5103661;28;20539;-49
2023/03/04 07:17:49;;;;;;;7.40;1.20;;;5.20;99.90;;;;;;5098387;28;20421;-49
2023/03/04 07:20:15;;;;;;;7.93;1.30;;;5.20;99.90;;;;;;5132355;27;20039;-47
2023/03/04 07:22:40;;;;;;;4.35;1.13;;;5.20;99.90;;;;;;5130981;27;20071;-47
2023/03/04 07:25:06;;;;;;;11.07;1.42;;;5.20;99.90;;;;;;5131404;27;20107;-48
2023/03/04 07:27:32;;;;;;;5.53;1.30;;;5.20;99.90;;;;;;5098843;27;20043;-50
2023/03/04 07:29:58;;;;;;;5.95;1.73;;;5.20;99.90;;;;;;5112305;27;20382;-47
2023/03/04 07:32:24;;;;;;;11.85;1.70;;;5.20;99.90;;;;;;5130869;27;20043;-47
2023/03/04 07:34:50;;;;;;;10.05;1.55;;;5.20;99.90;;;;;;5102871;28;20047;-51
2023/03/04 07:37:16;;;;;;;10.63;1.60;;;5.20;99.90;;;;;;5121365;27;20035;-47
2023/03/04 07:39:41;;;;;;;9.82;2.20;;;5.30;99.90;;;;;;5130985;27;20027;-49
2023/03/04 07:42:07;;;;;;;8.82;1.70;;;5.30;99.90;;;;;;5106422;27;20047;-47
2023/03/04 07:44:33;;;;;;;9.57;1.92;;;5.50;99.90;;;;;;5101728;28;20040;-47
2023/03/04 07:46:58;;;;;;;11.93;2.00;;;5.30;99.90;;;;;;5122140;27;20505;-48
2023/03/04 07:49:24;;;;;;;9.55;1.92;;;5.30;99.90;;;;;;5132224;27;20450;-50
2023/03/04 07:51:49;;;;;;;6.93;1.65;;;5.30;99.90;;;;;;5113252;27;20554;-48
2023/03/04 07:54:15;;;;;;;10.73;2.10;;;5.30;99.90;;;;;;5103601;27;20038;-49
2023/03/04 07:56:41;;;;;;;8.45;1.92;;;5.40;99.90;;;;;;5101324;27;20120;-49
2023/03/04 07:59:07;;;;;;;7.50;2.08;;;5.40;99.90;;;;;;5099215;27;20039;-51
2023/03/04 08:01:35;;;;;;;9.68;2.40;;;5.30;99.90;;;;;;5104885;27;20039;-47
2023/03/04 08:04:02;;;;;;;16.88;2.67;;;5.40;99.90;;;;;;5109714;27;20039;-48
2023/03/04 08:06:28;;;;;;;19.13;2.03;;;5.50;99.90;;;;;;5105840;27;20035;-47
2023/03/04 08:09:00;;;;;;;13.20;2.10;;;5.50;99.90;;;;;;5098811;28;20372;-49
2023/03/04 08:11:28;;;;;;;12.90;1.95;;;5.50;99.90;;;;;;5098361;27;20046;-50
2023/03/04 08:13:54;;;;;;;10.90;2.00;;;5.50;99.90;;;;;;5099744;28;20035;-50
2023/03/04 08:16:21;;;;;;;7.80;2.30;;;5.60;99.90;;;;;;5087020;28;20043;-50
2023/03/04 08:18:49;;;;;;;10.05;2.90;;;5.70;99.90;;;;;;5102075;27;20031;-51
2023/03/04 08:21:18;;;;;;;11.98;2.30;;;5.60;99.90;;;;;;5100624;27;20035;-48
2023/03/04 08:23:44;;;;;;;12.50;3.10;;;6.00;99.90;;;;;;5102676;27;20844;-49
2023/03/04 08:26:23;;;;;;;12.05;3.38;;;5.80;99.90;;;;;;5102185;27;20065;-48
2023/03/04 08:28:50;;;;;;;10.00;3.75;;;5.80;99.90;;;;;;5107824;27;20421;-49
2023/03/04 08:31:17;;;;;;;21.70;4.40;;;5.80;99.90;;;;;;5104378;27;20859;-49
2023/03/04 08:33:43;;;;;;;18.38;4.03;;;5.90;99.90;;;;;;5100907;27;20515;-48
2023/03/04 08:36:09;;;;;;;17.65;4.40;;;5.80;99.90;;;;;;5088438;27;20111;-49
2023/03/04 08:38:36;;;;;;;12.77;3.90;;;5.80;99.90;;;;;;5098524;27;20039;-47
2023/03/04 08:41:02;;;;;;;15.02;4.20;;;6.30;99.90;;;;;;5101914;27;20047;-50
2023/03/04 08:43:29;;;;;;;15.52;4.80;;;5.90;99.90;;;;;;5101026;27;20471;-48
2023/03/04 08:45:55;;;;;;;16.80;5.32;;;6.00;99.90;;;;;;5087786;28;20034;-47
2023/03/04 08:48:21;;;;;;;23.55;7.45;;;6.00;99.90;;;;;;5095755;27;20040;-47
2023/03/04 08:50:48;;;;;;;21.92;7.90;;;6.00;99.90;;;;;;5097756;27;20027;-48
2023/03/04 08:53:15;;;;;;;19.15;6.90;;;6.10;99.90;;;;;;5098154;27;20042;-50
2023/03/04 08:55:41;;;;;;;19.20;6.32;;;6.20;99.90;;;;;;5099614;27;20117;-49
2023/03/04 08:58:07;;;;;;;17.52;6.00;;;5.90;99.90;;;;;;5097451;28;20026;-46
2023/03/04 09:00:35;;;;;;;16.45;5.93;;;5.90;99.90;;;;;;5100538;27;20020;-51
2023/03/04 09:03:00;;;;;;;12.30;2.45;;;6.00;99.90;;;;;;5101583;27;20041;-48
2023/03/04 09:05:26;;;;;;;9.73;1.67;;;6.70;99.90;;;;;;5097772;28;20028;-46
2023/03/04 09:07:53;;;;;;;5.93;1.55;;;6.00;99.90;;;;;;5098307;27;20059;-46
2023/03/04 09:10:19;;;;;;;11.35;2.38;;;6.00;99.90;;;;;;5097303;28;20056;-49
2023/03/04 09:12:45;;;;;;;4.38;1.20;;;6.20;99.90;;;;;;5107745;28;20030;-48
2023/03/04 09:15:11;;;;;;;11.02;1.75;;;6.10;99.90;;;;;;5106740;28;20047;-47
2023/03/04 09:17:37;;;;;;;7.38;1.45;;;6.20;99.90;;;;;;5100101;28;20537;-48
2023/03/04 09:20:04;;;;;;;9.57;1.50;;;6.30;99.90;;;;;;5087359;28;20043;-48
2023/03/04 09:22:30;;;;;;;10.77;1.48;;;6.50;99.90;;;;;;5095584;28;20043;-48
2023/03/04 09:24:56;;;;;;;12.60;1.70;;;6.50;99.90;;;;;;5096557;28;20043;-50
2023/03/04 09:27:22;;;;;;;9.65;1.63;;;6.70;99.90;;;;;;5098031;28;20046;-49
2023/03/04 09:29:48;;;;;;;8.68;1.30;;;6.70;99.90;;;;;;5098948;28;20126;-49
2023/03/04 09:32:14;;;;;;;11.95;1.80;;;6.80;99.90;;;;;;5085658;28;20028;-48
2023/03/04 09:34:39;;;;;;;15.57;1.73;;;6.80;99.90;;;;;;5096942;28;20043;-48
2023/03/04 09:37:05;;;;;;;17.85;2.13;;;6.80;99.90;;;;;;5095361;28;20394;-48
2023/03/04 09:39:31;;;;;;;10.05;1.98;;;6.80;99.90;;;;;;5099838;28;20020;-49
2023/03/04 09:41:58;;;;;;;14.35;2.67;;;6.80;99.90;;;;;;5098920;28;20036;-50
2023/03/04 09:44:27;;;;;;;18.13;2.30;;;6.70;99.90;;;;;;5096696;28;20127;-50
2023/03/04 09:46:57;;;;;;;13.00;1.70;;;6.70;99.90;;;;;;5085518;28;20113;-51
2023/03/04 09:49:24;;;;;;;11.27;1.88;;;6.70;99.90;;;;;;5099071;28;20039;-50
2023/03/04 09:52:51;;;;;;;13.93;1.95;;;6.80;99.90;;;;;;5098656;28;20486;-47
2023/03/04 09:55:29;;;;;;;17.45;2.08;;;6.70;99.90;;;;;;5022019;28;20080;-50
2023/03/04 09:58:10;;;;;;;13.20;1.85;;;6.80;99.90;;;;;;5094308;27;20579;-50
2023/03/04 10:01:05;;;;;;;11.88;2.20;;;6.80;99.90;;;;;;5086651;27;20119;-51
2023/03/04 10:03:47;;;;;;;15.23;2.30;;;6.80;99.90;;;;;;5088196;28;20040;-50
2023/03/04 10:06:17;;;;;;;18.75;2.95;;;7.00;99.90;;;;;;5100373;27;20084;-48
2023/03/04 10:09:32;;;;;;;12.65;2.40;;;7.00;99.90;;;;;;5100348;27;20187;-48
2023/03/04 10:12:10;;;;;;;9.38;2.17;;;7.20;99.90;;;;;;5081755;27;20498;-49
2023/03/04 10:14:45;;;;;;;12.88;2.17;;;7.10;99.90;;;;;;5100385;27;20031;-51
2023/03/04 10:17:32;;;;;;;15.25;2.28;;;7.10;99.90;;;;;;5084486;28;20101;-48
2023/03/04 10:20:07;;;;;;;16.20;2.25;;;7.10;99.90;;;;;;5102050;27;20046;-48
2023/03/04 10:22:35;;;;;;;19.92;2.33;;;7.10;99.90;;;;;;5102331;27;20496;-49
2023/03/04 10:25:27;;;;;;;11.35;2.20;;;7.10;99.90;;;;;;5101650;27;20306;-48
2023/03/04 10:28:03;;;;;;;17.35;2.20;;;7.10;99.90;;;;;;5101041;27;20086;-51
2023/03/04 10:30:47;;;;;;;13.55;2.55;;;7.10;99.90;;;;;;5101997;27;20418;-50
2023/03/04 10:33:18;;;;;;;17.13;2.30;;;7.20;99.90;;;;;;5102746;27;20700;-48
2023/03/04 10:35:53;;;;;;;14.40;2.83;;;7.10;99.90;;;;;;5101259;27;20043;-48
2023/03/04 10:38:21;;;;;;;19.33;2.15;;;7.20;99.90;;;;;;5103772;27;20749;-51
2023/03/04 10:40:46;;;;;;;17.17;2.42;;;7.30;99.90;;;;;;5088900;27;20154;-48
2023/03/04 10:43:17;;;;;;;15.05;2.05;;;7.30;99.90;;;;;;5088346;27;20122;-50
2023/03/04 10:45:44;;;;;;;18.33;2.60;;;7.40;99.90;;;;;;5102710;27;20390;-51
2023/03/04 10:48:27;;;;;;;17.85;2.85;;;7.40;99.90;;;;;;5104160;27;20032;-49
2023/03/04 10:51:08;;;;;;;16.00;2.63;;;7.40;99.90;;;;;;5089884;28;20133;-51
2023/03/04 10:53:41;;;;;;;15.43;2.63;;;7.40;99.90;;;;;;5099559;27;20425;-47
2023/03/04 10:56:52;;;;;;;16.55;2.17;;;7.40;99.90;;;;;;5099508;27;20079;-49
2023/03/04 10:59:43;;;;;;;13.27;2.15;;;7.50;99.90;;;;;;5005832;28;20552;-48
2023/03/04 11:02:19;;;;;;;12.68;2.30;;;7.40;99.90;;;;;;5101064;27;20031;-48
2023/03/04 11:04:51;;;;;;;12.43;2.17;;;7.50;99.90;;;;;;5100993;27;20141;-50
2023/03/04 11:07:17;;;;;;;8.88;1.55;;;7.50;99.90;;;;;;5088425;27;20088;-49
2023/03/04 11:09:44;;;;;;;14.25;1.80;;;7.50;99.90;;;;;;5091194;28;20879;-47
2023/03/04 11:12:12;;;;;;;13.05;2.78;;;7.50;99.90;;;;;;5105408;27;20035;-49
2023/03/04 11:14:45;;;;;;;12.52;1.92;;;7.50;99.90;;;;;;5103150;27;20027;-49
2023/03/04 11:17:24;;;;;;;12.05;1.77;;;7.50;99.90;;;;;;5101513;27;20039;-49
2023/03/04 11:20:03;;;;;;;14.57;1.75;;;7.40;99.90;;;;;;5099655;27;21572;-48
2023/03/04 11:22:30;;;;;;;11.48;2.10;;;7.40;99.90;;;;;;5100785;27;20040;-47
2023/03/04 11:25:13;;;;;;;11.25;1.40;;;8.60;99.90;;;;;;5099879;27;20391;-48
2023/03/04 11:27:44;;;;;;;12.75;1.75;;;7.50;99.90;;;;;;5103185;27;20100;-47
2023/03/04 11:30:33;;;;;;;11.35;1.70;;;7.50;99.90;;;;;;5104864;27;20071;-48
2023/03/04 11:33:12;;;;;;;10.20;1.48;;;7.50;99.90;;;;;;5112068;27;20093;-51
2023/03/04 11:35:57;;;;;;;12.20;1.83;;;7.60;99.90;;;;;;5098490;27;20028;-51
2023/03/04 11:38:34;;;;;;;12.05;1.80;;;7.60;99.90;;;;;;5078233;27;20099;-48
2023/03/04 11:41:10;;;;;;;13.05;2.17;;;7.50;99.90;;;;;;5077759;28;20052;-49
2023/03/04 11:43:42;;;;;;;9.98;1.58;;;7.50;99.90;;;;;;5100813;27;20028;-50
2023/03/04 11:46:10;;;;;;;11.30;1.42;;;7.40;99.90;;;;;;5104465;27;20520;-52
2023/03/04 11:49:06;;;;;;;8.38;1.38;;;7.20;99.90;;;;;;5106009;27;20059;-49
2023/03/04 11:51:37;;;;;;;9.50;1.50;;;7.20;99.90;;;;;;5103532;27;20035;-48
2023/03/04 11:54:11;;;;;;;10.35;2.08;;;7.30;99.90;;;;;;5102837;27;20139;-50
2023/03/04 11:56:43;;;;;;;7.22;1.15;;;7.20;99.90;;;;;;5096340;27;20039;-49
2023/03/04 11:59:26;;;;;;;12.00;1.35;;;7.30;99.90;;;;;;5101722;27;20631;-48
2023/03/04 12:02:10;;;;;;;10.43;1.45;;;7.50;99.90;;;;;;5104193;27;20035;-51
2023/03/04 12:04:50;;;;;;;9.32;1.60;;;7.60;99.90;;;;;;5102183;27;20135;-51
2023/03/04 12:07:41;;;;;;;8.25;1.42;;;7.60;99.90;;;;;;5099641;27;20043;-49
2023/03/04 12:10:19;;;;;;;9.57;1.63;;;7.50;99.90;;;;;;5100220;27;20082;-49
2023/03/04 12:13:24;;;;;;;10.70;1.20;;;7.40;99.90;;;;;;5103143;27;20035;-49
2023/03/04 12:16:14;;;;;;;11.43;1.35;;;7.40;99.90;;;;;;5056953;27;20047;-48
2023/03/04 12:18:57;;;;;;;10.85;1.40;;;7.40;99.90;;;;;;5101189;27;20035;-49
2023/03/04 12:21:38;;;;;;;8.60;1.33;;;7.50;99.90;;;;;;5101339;27;20031;-47
2023/03/04 12:24:04;;;;;;;4.88;1.05;;;7.50;99.90;;;;;;5101918;27;20061;-48
2023/03/04 12:26:48;;;;;;;12.82;1.48;;;7.50;99.90;;;;;;5100405;27;20052;-48
2023/03/04 12:29:34;;;;;;;8.85;1.45;;;7.60;99.90;;;;;;5101396;27;20032;-51
2023/03/04 12:32:12;;;;;;;10.15;1.50;;;7.70;99.90;;;;;;5100835;27;20031;-51
2023/03/04 12:34:59;;;;;;;9.00;1.55;;;7.80;99.90;;;;;;5098764;27;20036;-49
2023/03/04 12:37:51;;;;;;;10.13;1.10;;;7.90;99.90;;;;;;5104013;27;20486;-48
2023/03/04 12:40:26;;;;;;;9.60;2.00;;;8.00;99.90;;;;;;5100877;27;20099;-51
2023/03/04 12:43:10;;;;;;;10.65;1.92;;;8.10;99.90;;;;;;5105265;27;20066;-51
2023/03/04 12:45:39;;;;;;;9.80;1.73;;;8.10;99.90;;;;;;5105424;27;20166;-48
2023/03/04 12:48:09;;;;;;;10.98;1.42;;;8.20;99.90;;;;;;5103762;27;20075;-48
2023/03/04 12:51:10;;;;;;;12.90;1.48;;;8.20;99.90;;;;;;5102405;27;20475;-50
2023/03/04 12:53:42;;;;;;;11.27;1.83;;;8.20;99.90;;;;;;5054683;27;20819;-48
2023/03/04 12:56:21;;;;;;;11.00;1.90;;;8.20;99.90;;;;;;5105393;27;20039;-47
2023/03/04 12:58:48;;;;;;;8.77;1.83;;;8.20;99.90;;;;;;5081462;28;20484;-53
2023/03/04 13:01:20;;;;;;;14.20;2.20;;;8.20;99.90;;;;;;5103677;28;20035;-48
2023/03/04 13:04:04;;;;;;;10.27;2.10;;;8.70;99.90;;;;;;5103637;27;20039;-51